LEX weather

Blue Grass Airport
Lexington, Kentucky, United States

Public forecast

Using degrees Fahrenheit for public forecast. Weather courtesy of forecast.io.

METAR (pilot weather report)

Retrieved 2019/04/24 08:54 UTC (54 minutes ago):

KLEX 240854Z 03005KT 10SM FEW060 13/11 A2999 RMK AO2 SLP146 T01330106 55002

TAF (pilot weather forecast)

Retrieved 2019/04/24 06:24 UTC (3 hours ago):

TAF KLEX 240521Z 2406/2506 VRB04KT P6SM BKN050 FM241700 20007KT P6SM BKN045 FM250000 15005KT P6SM BKN035 PROB30 2500/2506 4SM -TSRA BR OVC035CB